Terminal Aerodrome Forecast
Issued by NWS Bismarck, ND

Home | Current Version | Previous Version | Graphics & Text | Print | Product List | Glossary On
Versions: 1 2 3 4 5 6 7 8 9 10 11 12 13 14 15 16 17 18 19 20 21
000
FTUS43 KBIS 301600 AAC
TAFISN
TAF AMD
KISN 301623Z 3016/0112 09003KT P6SM BKN060 OVC080
      TEMPO 3016/3020 5SM -SHRA BR BKN015 OVC060
     FM302000 10008KT 4SM SHRA VCTS SCT012 OVC025CB
     FM010200 34006KT 5SM -SHRA BR BKN008 OVC012
     FM010900 32015KT P6SM SCT010 BKN025 OVC035=

USA.gov is the U.S. government's official web portal to all federal, state and local government web resources and services.